Time;durP1;ratioP1;P1;durP2;ratioP2;P2;SDS_P1;SDS_P2;PMS_P1;PMS_P2;Temp;Humidity;BMP_temperature;BMP_pressure;BME280_temperature;BME280_humidity;BME280_pressure;Samples;Min_cycle;Max_cycle;Signal;HPM_P1;HPM_P2
2023/06/29 00:01:32;;;;;;;7.53;4.50;;;18.00;99.90;;;;;;5000642;28;20459;-75
2023/06/29 00:03:59;;;;;;;11.60;4.33;;;18.00;99.90;;;;;;5001634;28;20449;-75
2023/06/29 00:06:26;;;;;;;6.20;4.97;;;17.90;99.90;;;;;;4998597;28;20467;-75
2023/06/29 00:08:54;;;;;;;7.30;4.70;;;17.80;99.90;;;;;;5002101;28;20463;-73
2023/06/29 00:11:22;;;;;;;7.00;5.00;;;17.70;99.90;;;;;;5002692;28;20479;-74
2023/06/29 00:13:48;;;;;;;7.30;4.30;;;17.70;99.90;;;;;;4997490;28;20458;-74
2023/06/29 00:16:16;;;;;;;6.23;5.10;;;17.70;99.90;;;;;;4998104;28;20878;-74
2023/06/29 00:18:43;;;;;;;8.47;4.90;;;17.70;99.90;;;;;;5003209;28;20548;-75
2023/06/29 00:21:10;;;;;;;5.27;4.50;;;17.70;99.90;;;;;;5007058;28;20529;-74
2023/06/29 00:23:36;;;;;;;6.90;4.63;;;17.70;99.90;;;;;;5006693;28;21193;-73
2023/06/29 00:26:05;;;;;;;5.80;4.97;;;17.60;99.90;;;;;;4992747;28;20451;-74
2023/06/29 00:28:31;;;;;;;4.77;4.23;;;17.50;99.90;;;;;;4995459;28;20462;-74
2023/06/29 00:30:58;;;;;;;10.70;4.57;;;17.60;99.90;;;;;;5001995;28;20459;-74
2023/06/29 00:33:24;;;;;;;6.80;4.60;;;17.50;99.90;;;;;;4998039;28;21375;-74
2023/06/29 00:35:51;;;;;;;8.83;5.00;;;17.40;99.90;;;;;;5000885;28;20429;-73
2023/06/29 00:38:18;;;;;;;5.40;4.70;;;17.40;99.90;;;;;;4994758;28;20522;-74
2023/06/29 00:40:44;;;;;;;6.37;4.63;;;17.30;99.90;;;;;;5002258;28;20466;-74
2023/06/29 00:43:13;;;;;;;5.10;4.60;;;17.30;99.90;;;;;;5007509;28;20524;-74
2023/06/29 00:45:40;;;;;;;7.57;5.03;;;17.20;99.90;;;;;;5001536;28;20457;-73
2023/06/29 00:48:07;;;;;;;5.90;4.70;;;17.20;99.90;;;;;;5003471;28;20545;-74
2023/06/29 00:50:34;;;;;;;7.40;4.63;;;17.20;99.90;;;;;;5000390;28;20430;-74
2023/06/29 00:53:01;;;;;;;6.20;4.40;;;17.20;99.90;;;;;;4999697;28;20496;-74
2023/06/29 00:55:28;;;;;;;11.23;4.97;;;17.20;99.90;;;;;;4997132;28;20458;-74
2023/06/29 00:57:55;;;;;;;5.60;5.07;;;17.20;99.90;;;;;;5003605;28;20451;-74
2023/06/29 01:00:23;;;;;;;6.17;5.00;;;17.20;99.90;;;;;;4998294;28;20458;-74
2023/06/29 01:02:50;;;;;;;5.63;4.77;;;17.20;99.90;;;;;;4997932;28;20512;-74
2023/06/29 01:05:17;;;;;;;8.77;4.60;;;17.20;99.90;;;;;;4997841;28;20450;-73
2023/06/29 01:07:49;;;;;;;11.70;5.10;;;17.10;99.90;;;;;;5005917;28;20476;-74
2023/06/29 01:10:18;;;;;;;8.43;4.60;;;17.20;99.90;;;;;;4995763;28;20454;-74
2023/06/29 01:12:46;;;;;;;9.57;5.47;;;17.20;99.90;;;;;;4992546;28;21017;-74
2023/06/29 01:15:13;;;;;;;6.87;5.20;;;17.10;99.90;;;;;;5001563;28;20450;-74
2023/06/29 01:17:43;;;;;;;11.37;5.67;;;17.10;99.90;;;;;;4998413;28;20509;-74
2023/06/29 01:20:11;;;;;;;10.07;5.47;;;17.20;99.90;;;;;;5000601;28;20454;-74
2023/06/29 01:22:42;;;;;;;7.10;5.73;;;17.10;99.90;;;;;;4999477;28;20427;-74
2023/06/29 01:25:12;;;;;;;6.87;5.23;;;17.10;99.90;;;;;;4999793;28;20464;-76
2023/06/29 01:27:43;;;;;;;12.60;5.83;;;17.10;99.90;;;;;;4994316;28;20465;-74
2023/06/29 01:30:10;;;;;;;6.53;5.73;;;17.10;99.90;;;;;;5000735;28;20462;-74
2023/06/29 01:32:37;;;;;;;25.87;5.80;;;17.10;99.90;;;;;;5001173;28;20503;-74
2023/06/29 01:35:07;;;;;;;9.73;6.37;;;17.00;99.90;;;;;;4999034;28;20455;-74
2023/06/29 01:37:41;;;;;;;8.77;5.47;;;17.00;99.90;;;;;;4995633;28;20524;-74
2023/06/29 01:40:12;;;;;;;10.03;6.00;;;16.90;99.90;;;;;;4995256;28;20456;-74
2023/06/29 01:42:41;;;;;;;6.87;5.93;;;16.90;99.90;;;;;;5001057;28;20447;-74
2023/06/29 01:45:09;;;;;;;7.10;5.40;;;16.80;99.90;;;;;;5003123;28;20512;-74
2023/06/29 01:47:36;;;;;;;6.43;5.83;;;16.70;99.90;;;;;;4997553;28;20453;-74
2023/06/29 01:50:04;;;;;;;6.70;6.10;;;16.50;99.90;;;;;;5000186;28;20433;-75
2023/06/29 01:52:31;;;;;;;8.00;5.60;;;16.40;99.90;;;;;;4994441;28;20439;-74
2023/06/29 01:54:57;;;;;;;6.47;5.23;;;16.30;99.90;;;;;;4997863;28;20519;-74
2023/06/29 01:57:25;;;;;;;8.37;5.37;;;16.30;99.90;;;;;;5006500;28;20519;-73
2023/06/29 01:59:52;;;;;;;6.33;5.20;;;16.20;99.90;;;;;;5000673;28;20456;-76
2023/06/29 02:02:18;;;;;;;7.53;5.70;;;16.20;99.90;;;;;;4998628;28;20431;-74
2023/06/29 02:04:45;;;;;;;7.50;5.83;;;16.20;99.90;;;;;;4997176;28;20515;-74
2023/06/29 02:07:12;;;;;;;7.40;5.47;;;16.20;99.90;;;;;;4998990;28;20984;-74
2023/06/29 02:09:38;;;;;;;9.40;5.40;;;16.20;99.90;;;;;;4998346;28;20434;-74
2023/06/29 02:12:06;;;;;;;10.13;6.27;;;16.20;99.90;;;;;;4999934;28;20467;-74
2023/06/29 02:14:34;;;;;;;6.37;5.77;;;16.20;99.90;;;;;;4991738;28;20545;-74
2023/06/29 02:17:01;;;;;;;8.17;6.10;;;16.20;99.90;;;;;;4994942;28;21031;-74
2023/06/29 02:19:28;;;;;;;6.30;5.20;;;16.20;99.90;;;;;;5003704;28;20428;-74
2023/06/29 02:21:54;;;;;;;11.00;6.43;;;16.10;99.90;;;;;;5001325;28;20489;-74
2023/06/29 02:24:21;;;;;;;11.27;5.37;;;16.00;99.90;;;;;;5003392;28;20471;-74
2023/06/29 02:26:47;;;;;;;10.00;5.83;;;16.00;99.90;;;;;;4998449;28;20459;-74
2023/06/29 02:29:14;;;;;;;6.03;5.43;;;16.00;99.90;;;;;;5000983;28;21005;-74
2023/06/29 02:31:42;;;;;;;8.50;6.10;;;16.10;99.90;;;;;;5000153;28;20484;-74
2023/06/29 02:34:09;;;;;;;9.87;5.97;;;16.00;99.90;;;;;;4995599;28;20519;-74
2023/06/29 02:36:35;;;;;;;9.30;6.20;;;16.00;99.90;;;;;;5004853;28;20462;-74
2023/06/29 02:39:02;;;;;;;7.63;6.80;;;16.00;99.90;;;;;;5002343;28;20500;-73
2023/06/29 02:41:29;;;;;;;13.77;6.77;;;16.00;99.90;;;;;;4997241;28;20437;-74
2023/06/29 02:43:55;;;;;;;15.73;6.80;;;16.00;99.90;;;;;;4999998;28;20457;-75
2023/06/29 02:46:22;;;;;;;9.43;6.93;;;16.10;99.90;;;;;;5001950;28;21007;-74
2023/06/29 02:48:50;;;;;;;8.60;6.73;;;16.10;99.90;;;;;;5000644;28;20907;-74
2023/06/29 02:51:17;;;;;;;9.73;6.77;;;16.10;99.90;;;;;;4999448;28;20440;-75
2023/06/29 02:53:43;;;;;;;9.53;6.53;;;16.10;99.90;;;;;;5002745;28;20532;-75
2023/06/29 02:56:10;;;;;;;8.10;6.60;;;16.10;99.90;;;;;;5004574;28;20428;-75
2023/06/29 02:58:36;;;;;;;12.13;6.60;;;16.00;99.90;;;;;;5001865;28;20461;-75
2023/06/29 03:01:03;;;;;;;8.90;6.60;;;16.00;99.90;;;;;;5002052;28;20433;-75
2023/06/29 03:03:30;;;;;;;7.60;6.30;;;16.00;99.90;;;;;;4996157;28;20503;-74
2023/06/29 03:05:57;;;;;;;8.37;5.90;;;16.00;99.90;;;;;;5002913;28;20525;-75
2023/06/29 03:08:24;;;;;;;9.20;6.00;;;16.00;99.90;;;;;;5008305;28;21052;-75
2023/06/29 03:10:51;;;;;;;9.67;5.97;;;16.00;99.90;;;;;;5002395;28;20448;-75
2023/06/29 03:13:17;;;;;;;9.20;6.20;;;16.00;99.90;;;;;;4994377;28;20532;-75
2023/06/29 03:15:44;;;;;;;10.30;7.07;;;15.90;99.90;;;;;;5001322;28;20958;-74
2023/06/29 03:18:11;;;;;;;7.93;6.20;;;15.90;99.90;;;;;;5005326;28;20454;-75
2023/06/29 03:20:37;;;;;;;6.87;5.87;;;15.90;99.90;;;;;;5004253;28;20485;-75
2023/06/29 03:23:05;;;;;;;9.07;7.20;;;15.90;99.90;;;;;;5000214;28;21032;-75
2023/06/29 03:25:32;;;;;;;8.00;6.93;;;15.90;99.90;;;;;;4995254;28;20438;-75
2023/06/29 03:27:59;;;;;;;7.67;6.13;;;15.80;99.90;;;;;;5006416;28;20460;-75
2023/06/29 03:30:25;;;;;;;7.10;5.83;;;15.80;99.90;;;;;;5002478;28;20855;-75
2023/06/29 03:32:53;;;;;;;6.93;6.10;;;15.70;99.90;;;;;;5005981;28;20458;-75
2023/06/29 03:35:19;;;;;;;11.07;7.00;;;15.70;99.90;;;;;;4996576;28;20433;-75
2023/06/29 03:37:46;;;;;;;9.17;6.30;;;15.70;99.90;;;;;;5002914;28;20441;-75
2023/06/29 03:40:14;;;;;;;10.60;6.13;;;15.60;99.90;;;;;;5001642;28;20433;-74
2023/06/29 03:42:41;;;;;;;9.43;5.70;;;15.60;99.90;;;;;;5005248;28;20437;-75
2023/06/29 03:45:08;;;;;;;13.27;6.57;;;15.60;99.90;;;;;;5001520;28;20458;-75
2023/06/29 03:47:35;;;;;;;10.17;6.43;;;15.60;99.90;;;;;;4993517;28;20438;-75
2023/06/29 03:50:01;;;;;;;10.40;6.07;;;15.60;99.90;;;;;;4995780;28;20985;-75
2023/06/29 03:52:28;;;;;;;9.37;5.87;;;15.60;99.90;;;;;;4998490;28;20425;-74
2023/06/29 03:54:55;;;;;;;8.73;5.33;;;15.70;99.90;;;;;;5003905;28;20479;-73
2023/06/29 03:57:23;;;;;;;8.63;6.13;;;15.70;99.90;;;;;;5005993;28;20437;-73
2023/06/29 03:59:49;;;;;;;12.63;6.60;;;15.70;99.90;;;;;;4995172;28;20422;-73
2023/06/29 04:02:16;;;;;;;9.67;6.63;;;15.70;99.90;;;;;;5005881;28;20480;-73
2023/06/29 04:04:43;;;;;;;8.20;6.83;;;15.70;99.90;;;;;;4997308;28;20474;-72
2023/06/29 04:07:10;;;;;;;9.43;6.60;;;15.70;99.90;;;;;;5006371;28;20934;-73
2023/06/29 04:09:37;;;;;;;8.57;6.30;;;15.70;99.90;;;;;;5007013;28;20454;-72
2023/06/29 04:12:05;;;;;;;8.70;7.30;;;15.70;99.90;;;;;;5007114;28;20593;-72
2023/06/29 04:14:33;;;;;;;7.97;6.90;;;15.70;99.90;;;;;;4998582;28;20454;-72
2023/06/29 04:17:00;;;;;;;11.27;7.83;;;15.70;99.90;;;;;;4999590;28;20430;-72
2023/06/29 04:19:26;;;;;;;10.27;7.77;;;15.80;99.90;;;;;;5001633;28;20432;-72
2023/06/29 04:21:53;;;;;;;14.70;8.37;;;15.80;99.90;;;;;;5008037;28;21072;-72
2023/06/29 04:24:19;;;;;;;9.73;7.23;;;15.80;99.90;;;;;;5005653;28;20496;-72
2023/06/29 04:26:47;;;;;;;16.23;7.37;;;15.80;99.90;;;;;;5008665;28;20908;-72
2023/06/29 04:29:14;;;;;;;21.80;8.20;;;15.90;99.90;;;;;;5008589;28;20486;-73
2023/06/29 04:31:42;;;;;;;10.17;7.17;;;15.90;99.90;;;;;;5006025;28;20440;-72
2023/06/29 04:34:08;;;;;;;11.60;7.10;;;16.00;99.90;;;;;;5009012;28;21162;-73
2023/06/29 04:36:35;;;;;;;8.33;6.63;;;16.10;99.90;;;;;;5009471;28;20458;-72
2023/06/29 04:39:03;;;;;;;14.83;7.47;;;16.10;99.90;;;;;;5000832;28;20432;-72
2023/06/29 04:41:33;;;;;;;15.53;7.40;;;16.10;99.90;;;;;;5008959;28;20575;-73
2023/06/29 04:44:00;;;;;;;9.03;7.07;;;16.20;99.90;;;;;;5008209;28;20529;-73
2023/06/29 04:46:28;;;;;;;8.90;7.67;;;16.30;99.90;;;;;;5007694;28;20432;-73
2023/06/29 04:48:56;;;;;;;10.50;7.23;;;16.40;99.90;;;;;;5009078;28;20483;-72
2023/06/29 04:51:25;;;;;;;12.13;6.63;;;16.40;99.90;;;;;;5009223;28;20429;-73
2023/06/29 04:53:51;;;;;;;11.30;7.27;;;16.60;99.90;;;;;;5008669;28;20457;-72
2023/06/29 04:56:18;;;;;;;8.50;6.57;;;16.60;99.90;;;;;;5002617;28;20428;-72
2023/06/29 04:58:45;;;;;;;9.00;7.33;;;16.80;99.90;;;;;;5009010;28;20429;-72
2023/06/29 05:01:11;;;;;;;11.93;7.77;;;16.80;99.90;;;;;;5000583;28;20828;-72
2023/06/29 05:03:38;;;;;;;12.57;6.90;;;16.90;99.90;;;;;;5008824;28;20540;-72
2023/06/29 05:06:06;;;;;;;12.90;7.57;;;16.90;99.90;;;;;;5000721;28;20516;-72
2023/06/29 05:08:33;;;;;;;11.50;8.13;;;17.00;99.90;;;;;;5010263;28;20486;-71
2023/06/29 05:10:59;;;;;;;7.83;6.07;;;17.10;99.90;;;;;;4995849;28;20900;-71
2023/06/29 05:13:26;;;;;;;9.23;4.97;;;17.30;99.90;;;;;;5005355;28;20475;-72
2023/06/29 05:15:53;;;;;;;11.93;5.47;;;17.60;99.90;;;;;;5009454;28;20764;-72
2023/06/29 05:18:19;;;;;;;10.10;7.50;;;17.80;99.90;;;;;;5013864;28;20450;-72
2023/06/29 05:20:47;;;;;;;6.67;5.97;;;18.10;99.90;;;;;;5010991;28;20429;-72
2023/06/29 05:23:15;;;;;;;7.53;6.70;;;18.30;99.90;;;;;;4992467;28;20523;-70
2023/06/29 05:25:42;;;;;;;9.17;6.77;;;18.50;99.90;;;;;;5003610;28;20944;-70
2023/06/29 05:28:08;;;;;;;12.50;6.90;;;18.50;99.90;;;;;;5012832;28;20890;-70
2023/06/29 05:30:35;;;;;;;11.20;7.50;;;18.50;99.90;;;;;;5013733;28;20458;-70
2023/06/29 05:33:03;;;;;;;11.30;6.70;;;18.60;99.90;;;;;;5013451;28;21026;-71
2023/06/29 05:35:31;;;;;;;15.93;7.50;;;18.60;99.90;;;;;;5013870;28;20458;-70
2023/06/29 05:37:58;;;;;;;14.97;7.20;;;18.70;99.90;;;;;;5014761;28;20461;-70
2023/06/29 05:40:26;;;;;;;11.27;7.23;;;18.70;99.90;;;;;;5013653;28;20469;-70
2023/06/29 05:42:52;;;;;;;11.83;7.63;;;18.80;99.90;;;;;;5013970;28;20437;-71
2023/06/29 05:45:19;;;;;;;11.90;7.20;;;18.80;99.90;;;;;;5013969;28;20486;-70
2023/06/29 05:47:46;;;;;;;14.00;6.80;;;18.80;99.90;;;;;;5014059;28;20513;-70
2023/06/29 05:50:12;;;;;;;11.70;7.07;;;18.70;99.90;;;;;;5014277;28;20996;-70
2023/06/29 05:52:39;;;;;;;11.23;7.33;;;18.60;99.90;;;;;;5014432;28;20429;-70
2023/06/29 05:55:06;;;;;;;10.33;7.40;;;18.60;99.90;;;;;;5014073;28;21698;-70
2023/06/29 05:57:34;;;;;;;12.43;6.80;;;18.50;99.90;;;;;;5014209;28;20454;-70
2023/06/29 06:00:06;;;;;;;11.10;7.40;;;18.60;99.90;;;;;;5013639;28;20918;-70
2023/06/29 06:02:33;;;;;;;16.73;7.43;;;18.70;99.90;;;;;;5013089;28;20552;-70
2023/06/29 06:04:59;;;;;;;9.93;7.23;;;18.70;99.90;;;;;;5013215;28;21314;-70
2023/06/29 06:07:29;;;;;;;14.83;8.00;;;18.70;99.90;;;;;;5014154;28;20520;-70
2023/06/29 06:09:56;;;;;;;16.50;7.93;;;18.70;99.90;;;;;;5014350;28;21298;-70
2023/06/29 06:12:23;;;;;;;10.90;7.30;;;18.90;99.90;;;;;;5014078;28;20453;-70
2023/06/29 06:14:51;;;;;;;17.30;7.90;;;19.20;99.90;;;;;;5014027;28;20489;-70
2023/06/29 06:17:18;;;;;;;7.57;6.83;;;19.40;99.90;;;;;;5013642;28;20462;-70
2023/06/29 06:19:44;;;;;;;12.00;7.60;;;19.70;99.90;;;;;;5014139;28;20503;-71
2023/06/29 06:22:11;;;;;;;11.40;8.20;;;20.10;99.90;;;;;;5014063;28;20512;-71
2023/06/29 06:24:38;;;;;;;13.07;7.40;;;20.30;99.90;;;;;;5017979;28;20540;-70
2023/06/29 06:27:05;;;;;;;8.97;6.90;;;20.30;99.90;;;;;;5016438;28;20469;-71
2023/06/29 06:29:31;;;;;;;11.20;7.60;;;20.30;99.90;;;;;;5017407;28;20493;-71
2023/06/29 06:31:59;;;;;;;9.73;7.27;;;20.20;99.90;;;;;;5016973;28;20471;-71
2023/06/29 06:34:30;;;;;;;9.00;7.20;;;20.10;99.90;;;;;;5014277;28;20470;-71
2023/06/29 06:36:58;;;;;;;13.33;7.57;;;20.00;99.90;;;;;;5016042;28;20512;-71
2023/06/29 06:39:25;;;;;;;7.60;6.80;;;19.90;99.90;;;;;;5017995;28;21149;-71
2023/06/29 06:41:51;;;;;;;13.63;7.83;;;19.90;99.90;;;;;;5016886;28;20455;-71
2023/06/29 06:44:18;;;;;;;12.53;7.90;;;20.00;99.90;;;;;;5015943;28;20485;-71
2023/06/29 06:46:44;;;;;;;8.70;7.80;;;20.40;99.90;;;;;;5016772;28;20449;-71
2023/06/29 06:49:13;;;;;;;11.40;6.97;;;20.40;99.90;;;;;;5016360;28;20486;-71
2023/06/29 06:51:40;;;;;;;13.63;7.27;;;20.60;99.90;;;;;;5015642;28;20488;-71
2023/06/29 06:54:06;;;;;;;11.10;6.90;;;21.00;99.90;;;;;;5017115;28;20462;-71
2023/06/29 06:56:33;;;;;;;9.30;7.70;;;21.40;99.90;;;;;;5017879;28;20516;-71
2023/06/29 06:58:59;;;;;;;12.33;6.60;;;21.50;99.90;;;;;;5017334;28;20445;-72
2023/06/29 07:01:26;;;;;;;11.30;7.53;;;21.80;99.90;;;;;;5015434;28;20501;-72
2023/06/29 07:03:53;;;;;;;13.10;7.23;;;21.80;99.90;;;;;;5016806;28;20465;-71
2023/06/29 07:06:21;;;;;;;10.83;7.20;;;22.10;99.90;;;;;;5016922;28;20997;-71
2023/06/29 07:08:48;;;;;;;14.73;7.27;;;22.30;99.90;;;;;;5017319;28;20480;-71
2023/06/29 07:11:14;;;;;;;10.00;6.80;;;22.50;99.90;;;;;;5015509;28;20524;-72
2023/06/29 07:13:41;;;;;;;9.13;5.70;;;22.60;99.90;;;;;;5017049;28;20532;-72
2023/06/29 07:16:08;;;;;;;9.30;6.67;;;22.60;99.90;;;;;;5016767;28;20444;-71
2023/06/29 07:18:36;;;;;;;7.37;6.30;;;22.70;99.90;;;;;;5016567;28;20545;-71
2023/06/29 07:21:02;;;;;;;9.70;6.27;;;22.70;99.90;;;;;;5016827;28;20571;-71
2023/06/29 07:23:30;;;;;;;9.53;6.50;;;22.60;99.90;;;;;;5016392;28;20609;-71
2023/06/29 07:25:57;;;;;;;14.10;7.50;;;22.50;99.90;;;;;;5016477;28;21349;-71
2023/06/29 07:28:24;;;;;;;9.63;7.60;;;22.40;99.90;;;;;;5016822;28;20450;-70
2023/06/29 07:30:51;;;;;;;12.17;6.27;;;22.40;99.90;;;;;;5015895;28;20490;-73
2023/06/29 07:33:18;;;;;;;11.40;6.60;;;22.50;99.90;;;;;;5016276;28;20965;-71
2023/06/29 07:35:51;;;;;;;8.33;6.83;;;22.60;99.90;;;;;;5013093;28;20461;-71
2023/06/29 07:38:18;;;;;;;9.33;5.97;;;22.70;99.90;;;;;;5015329;28;21209;-71
2023/06/29 07:40:46;;;;;;;8.10;6.07;;;22.80;99.90;;;;;;5016368;28;20496;-70
2023/06/29 07:43:12;;;;;;;6.47;5.87;;;22.90;99.90;;;;;;5016328;28;20486;-71
2023/06/29 07:45:39;;;;;;;11.83;5.87;;;22.90;99.90;;;;;;5016389;28;20803;-70
2023/06/29 07:48:06;;;;;;;7.27;6.27;;;23.00;99.90;;;;;;5015881;28;20508;-71
2023/06/29 07:50:33;;;;;;;8.57;5.97;;;22.90;99.90;;;;;;5017065;28;20548;-71
2023/06/29 07:52:59;;;;;;;9.10;5.97;;;22.90;99.90;;;;;;5016131;28;20902;-70
2023/06/29 07:55:26;;;;;;;7.20;6.43;;;23.10;99.90;;;;;;5015929;28;20454;-70
2023/06/29 07:57:54;;;;;;;10.07;5.80;;;23.20;99.90;;;;;;5014600;28;20512;-71
2023/06/29 08:00:21;;;;;;;6.20;5.50;;;23.20;99.90;;;;;;5015709;28;20934;-70
2023/06/29 08:02:49;;;;;;;5.73;5.17;;;23.20;99.90;;;;;;5016322;28;20496;-70
2023/06/29 08:05:16;;;;;;;7.30;5.47;;;23.30;99.90;;;;;;5016299;28;20572;-70
2023/06/29 08:07:43;;;;;;;13.20;5.47;;;23.40;99.90;;;;;;5016413;28;21588;-71
2023/06/29 08:10:10;;;;;;;10.30;5.10;;;23.40;99.90;;;;;;5016212;28;20481;-71
2023/06/29 08:12:37;;;;;;;5.63;4.90;;;23.40;99.90;;;;;;5015855;28;21140;-70
2023/06/29 08:15:06;;;;;;;6.77;5.13;;;23.50;99.90;;;;;;5016134;28;20462;-71
2023/06/29 08:17:32;;;;;;;6.10;5.13;;;23.60;99.90;;;;;;5016192;28;20527;-71
2023/06/29 08:19:59;;;;;;;7.23;4.37;;;23.80;99.90;;;;;;5016208;28;20980;-71
2023/06/29 08:22:26;;;;;;;10.67;5.27;;;24.00;99.90;;;;;;5015764;28;20483;-70
2023/06/29 08:24:53;;;;;;;8.23;5.10;;;24.10;99.90;;;;;;5015635;28;20473;-71
2023/06/29 08:27:20;;;;;;;9.50;4.47;;;24.20;99.90;;;;;;5013044;28;20527;-71
2023/06/29 08:29:47;;;;;;;7.67;5.07;;;24.20;99.90;;;;;;5014398;28;20486;-71
2023/06/29 08:32:15;;;;;;;9.70;5.10;;;24.20;99.90;;;;;;5015452;28;20510;-71
2023/06/29 08:34:42;;;;;;;5.90;4.73;;;24.20;99.90;;;;;;5015431;28;20478;-71
2023/06/29 08:37:08;;;;;;;12.10;4.80;;;24.20;99.90;;;;;;5015330;28;20507;-71
2023/06/29 08:39:35;;;;;;;10.00;4.57;;;24.30;99.90;;;;;;5016155;28;20509;-72
2023/06/29 08:42:02;;;;;;;8.07;4.90;;;24.40;99.90;;;;;;5013003;28;20973;-71
2023/06/29 08:44:29;;;;;;;7.80;4.30;;;24.50;99.90;;;;;;5014964;28;20536;-71
2023/06/29 08:47:00;;;;;;;7.43;4.50;;;24.70;99.90;;;;;;5013903;28;20458;-72
2023/06/29 08:52:50;;;;;;;5.13;4.40;;;25.00;99.90;;;;;;5015181;28;20444;-72
2023/06/29 08:58:39;;;;;;;9.63;4.90;;;24.90;99.90;;;;;;5014368;28;20398;-71
2023/06/29 09:01:07;;;;;;;5.80;4.27;;;25.20;99.90;;;;;;5014837;28;20451;-71
2023/06/29 09:03:36;;;;;;;7.43;4.60;;;25.40;99.90;;;;;;5015555;28;21296;-71
2023/06/29 09:06:03;;;;;;;6.57;4.30;;;25.70;99.90;;;;;;5015433;28;20446;-72
2023/06/29 09:08:34;;;;;;;7.10;4.83;;;25.90;99.90;;;;;;5015608;28;20442;-72
2023/06/29 09:11:00;;;;;;;4.90;3.93;;;26.00;99.90;;;;;;5014610;28;20485;-71
2023/06/29 09:13:27;;;;;;;6.90;4.20;;;26.20;99.90;;;;;;5014898;28;20481;-71
2023/06/29 09:15:55;;;;;;;8.30;4.37;;;26.50;99.90;;;;;;5015454;28;21412;-70
2023/06/29 09:18:22;;;;;;;4.40;4.00;;;26.70;99.90;;;;;;5015927;28;20442;-71
2023/06/29 09:20:50;;;;;;;9.00;4.43;;;26.70;99.90;;;;;;5015849;28;20453;-72
2023/06/29 09:23:17;;;;;;;7.57;4.07;;;26.50;99.90;;;;;;5013137;28;20477;-70
2023/06/29 09:25:45;;;;;;;8.70;4.97;;;26.30;99.90;;;;;;5015098;28;20458;-71
2023/06/29 09:28:13;;;;;;;8.63;5.27;;;26.20;99.90;;;;;;5015834;28;20456;-72
2023/06/29 09:30:41;;;;;;;5.73;4.80;;;26.10;99.90;;;;;;5014017;28;20489;-72
2023/06/29 09:33:09;;;;;;;7.50;5.60;;;26.20;99.90;;;;;;5014516;28;20470;-71
2023/06/29 09:35:38;;;;;;;7.20;5.07;;;26.40;99.90;;;;;;5014971;28;20452;-72
2023/06/29 09:38:04;;;;;;;7.87;5.70;;;26.60;99.90;;;;;;5015720;28;20458;-71
2023/06/29 09:40:31;;;;;;;8.93;4.57;;;26.90;99.90;;;;;;5014776;28;20502;-71
2023/06/29 09:43:02;;;;;;;6.50;4.70;;;27.10;99.90;;;;;;5014622;28;20544;-71
2023/06/29 09:45:31;;;;;;;5.87;4.70;;;27.50;99.90;;;;;;5015324;28;20942;-71
2023/06/29 09:47:58;;;;;;;8.77;5.13;;;27.50;99.90;;;;;;5015111;28;20603;-72
2023/06/29 09:50:25;;;;;;;5.20;4.53;;;27.00;99.90;;;;;;5014563;28;20481;-72
2023/06/29 09:52:52;;;;;;;6.43;4.53;;;26.80;99.90;;;;;;5014407;28;20509;-72
2023/06/29 09:55:19;;;;;;;7.75;4.20;;;26.30;99.90;;;;;;5013877;28;20447;-73
2023/06/29 09:57:46;;;;;;;5.60;4.60;;;26.10;99.90;;;;;;5014039;28;20203;-71
2023/06/29 10:00:15;;;;;;;9.73;4.60;;;26.10;99.90;;;;;;5014491;28;20479;-72
2023/06/29 10:02:42;;;;;;;4.90;4.17;;;26.10;99.90;;;;;;5014524;28;20467;-71
2023/06/29 10:05:10;;;;;;;6.53;5.13;;;26.10;99.90;;;;;;5015013;28;20508;-72
2023/06/29 10:07:37;;;;;;;7.33;5.40;;;26.10;99.90;;;;;;5014707;28;20513;-72
2023/06/29 10:10:05;;;;;;;10.27;5.67;;;26.00;99.90;;;;;;5014813;28;20473;-72
2023/06/29 10:12:33;;;;;;;12.77;4.60;;;25.90;99.90;;;;;;5014362;28;20458;-71
2023/06/29 10:15:08;;;;;;;6.70;4.87;;;25.80;99.90;;;;;;5013708;28;21164;-72
2023/06/29 10:17:53;;;;;;;5.77;4.90;;;25.80;99.90;;;;;;5014060;28;20458;-72
2023/06/29 10:20:21;;;;;;;8.50;4.83;;;25.70;99.90;;;;;;5014339;28;20596;-72
2023/06/29 10:22:49;;;;;;;10.90;4.77;;;25.70;99.90;;;;;;5015721;28;20457;-72
2023/06/29 10:25:20;;;;;;;7.83;4.83;;;25.70;99.90;;;;;;5014573;28;20442;-72
2023/06/29 10:27:48;;;;;;;6.80;5.17;;;25.80;99.90;;;;;;5014688;28;20445;-72
2023/06/29 10:30:19;;;;;;;8.80;4.90;;;25.90;99.90;;;;;;5015263;28;20490;-71
2023/06/29 10:32:50;;;;;;;5.93;5.10;;;25.90;99.90;;;;;;5015167;28;20451;-72
2023/06/29 10:35:17;;;;;;;9.00;5.20;;;26.00;99.90;;;;;;5015400;28;20521;-71
2023/06/29 10:37:45;;;;;;;9.63;5.50;;;26.10;99.90;;;;;;5015358;28;20500;-72
2023/06/29 10:40:16;;;;;;;7.27;4.77;;;26.30;99.90;;;;;;5014612;28;20578;-73
2023/06/29 10:42:51;;;;;;;5.70;4.80;;;26.40;99.90;;;;;;5015314;28;20461;-72
2023/06/29 10:45:30;;;;;;;5.87;4.57;;;26.50;99.90;;;;;;5015974;28;20450;-72
2023/06/29 10:48:20;;;;;;;5.73;5.10;;;26.60;99.90;;;;;;5015290;28;20873;-72
2023/06/29 10:50:49;;;;;;;6.43;5.10;;;26.70;99.90;;;;;;5010243;28;20492;-72
2023/06/29 10:53:17;;;;;;;6.83;4.77;;;26.90;99.90;;;;;;5015165;28;20485;-72
2023/06/29 10:55:56;;;;;;;6.87;5.43;;;27.00;99.90;;;;;;5015426;28;20457;-71
2023/06/29 10:58:24;;;;;;;9.63;6.50;;;27.20;99.90;;;;;;5015518;28;20476;-72
2023/06/29 11:00:52;;;;;;;7.73;5.17;;;27.30;99.90;;;;;;5015394;28;20457;-72
2023/06/29 11:03:22;;;;;;;8.40;4.90;;;27.40;99.90;;;;;;5015002;28;20469;-72
2023/06/29 11:05:50;;;;;;;6.40;4.60;;;27.50;99.90;;;;;;5014103;28;20507;-72
2023/06/29 11:08:20;;;;;;;6.33;4.83;;;27.40;99.90;;;;;;5014022;28;21020;-72
2023/06/29 11:10:46;;;;;;;7.63;4.80;;;27.40;99.90;;;;;;5017572;28;20992;-72
2023/06/29 11:13:13;;;;;;;6.27;4.80;;;27.30;99.90;;;;;;5019253;28;20477;-72
2023/06/29 11:15:40;;;;;;;8.90;5.20;;;27.20;99.90;;;;;;5018569;28;20466;-71
2023/06/29 11:18:08;;;;;;;9.63;5.40;;;27.10;99.90;;;;;;5018792;28;20514;-72
2023/06/29 11:20:38;;;;;;;7.47;5.97;;;27.00;99.90;;;;;;5017984;28;20453;-72
2023/06/29 11:23:07;;;;;;;6.90;5.60;;;26.90;99.90;;;;;;5018470;28;20526;-72
2023/06/29 11:25:34;;;;;;;6.30;5.20;;;26.90;99.90;;;;;;5018167;28;20464;-72
2023/06/29 11:28:02;;;;;;;8.50;4.63;;;26.80;99.90;;;;;;5018239;28;20461;-71
2023/06/29 11:30:29;;;;;;;8.97;5.43;;;26.50;99.90;;;;;;5017875;28;20539;-72
2023/06/29 11:32:56;;;;;;;6.53;5.10;;;26.40;99.90;;;;;;5018132;28;20462;-72
2023/06/29 11:35:23;;;;;;;6.67;4.70;;;26.20;99.90;;;;;;5018059;28;20456;-72
2023/06/29 11:37:57;;;;;;;8.90;5.80;;;26.10;99.90;;;;;;5017873;28;20531;-72
2023/06/29 11:40:24;;;;;;;7.30;4.90;;;26.00;99.90;;;;;;5018339;28;20454;-71
2023/06/29 11:42:53;;;;;;;5.17;4.67;;;26.00;99.90;;;;;;5018620;28;20461;-72
2023/06/29 11:45:20;;;;;;;12.70;5.83;;;26.00;99.90;;;;;;5018278;28;20457;-72
2023/06/29 11:47:51;;;;;;;6.40;5.10;;;26.00;99.90;;;;;;5016477;28;20472;-72
2023/06/29 11:50:18;;;;;;;8.90;5.67;;;25.90;99.90;;;;;;5017617;28;20974;-72
2023/06/29 11:52:46;;;;;;;7.97;5.50;;;25.90;99.90;;;;;;5016603;28;20453;-71
2023/06/29 11:55:15;;;;;;;7.93;5.50;;;25.70;99.90;;;;;;5018249;28;20930;-71
2023/06/29 11:57:43;;;;;;;8.80;5.53;;;25.50;99.90;;;;;;5017468;28;20503;-72
2023/06/29 12:00:32;;;;;;;11.40;6.20;;;25.50;99.90;;;;;;5016098;28;20463;-72
2023/06/29 12:03:07;;;;;;;8.47;5.37;;;25.50;99.90;;;;;;5016302;28;20477;-72
2023/06/29 12:05:33;;;;;;;7.83;5.37;;;25.30;99.90;;;;;;5016811;28;20462;-72
2023/06/29 12:08:06;;;;;;;5.40;4.90;;;25.50;99.90;;;;;;5016790;28;20465;-72
2023/06/29 12:10:37;;;;;;;8.83;5.53;;;25.50;99.90;;;;;;5017315;28;20458;-72
2023/06/29 12:13:04;;;;;;;7.23;5.00;;;25.50;99.90;;;;;;5015601;28;20496;-72
2023/06/29 12:15:32;;;;;;;8.30;5.10;;;25.40;99.90;;;;;;5015888;28;20523;-71
2023/06/29 12:18:07;;;;;;;8.40;5.37;;;25.20;99.90;;;;;;5017327;28;20453;-71
2023/06/29 12:20:39;;;;;;;7.50;4.97;;;25.00;99.90;;;;;;5016264;28;20453;-71
2023/06/29 12:23:05;;;;;;;8.60;5.47;;;25.00;99.90;;;;;;5016078;28;20990;-71
2023/06/29 12:25:32;;;;;;;9.30;5.07;;;25.10;99.90;;;;;;5016869;28;20454;-72
2023/06/29 12:28:00;;;;;;;6.97;5.50;;;25.10;99.90;;;;;;5015853;28;20453;-72
2023/06/29 12:30:27;;;;;;;6.77;4.77;;;25.20;99.90;;;;;;5016131;28;20453;-71
2023/06/29 12:32:54;;;;;;;7.73;5.10;;;25.30;99.90;;;;;;5015468;28;20449;-72
2023/06/29 12:35:21;;;;;;;6.17;4.77;;;25.50;99.90;;;;;;5017112;28;20532;-71
2023/06/29 12:37:48;;;;;;;7.53;5.10;;;25.50;99.90;;;;;;5016675;28;20967;-71
2023/06/29 12:40:15;;;;;;;6.20;4.90;;;25.40;99.90;;;;;;5016994;28;20521;-71
2023/06/29 12:42:42;;;;;;;6.10;5.20;;;25.30;99.90;;;;;;5017099;28;20460;-71
2023/06/29 12:45:12;;;;;;;8.63;6.10;;;25.30;99.90;;;;;;5015697;28;20504;-71
2023/06/29 12:47:39;;;;;;;10.20;4.63;;;25.30;99.90;;;;;;5016997;28;20449;-71
2023/06/29 12:50:07;;;;;;;6.30;5.10;;;25.00;99.90;;;;;;5016482;28;20984;-72
2023/06/29 12:52:34;;;;;;;7.73;5.10;;;25.00;99.90;;;;;;5016406;28;20906;-71